createdAt,value
2024-05-09T00:00:05.023Z,941.86
2024-05-09T00:05:03.321Z,941.88
2024-05-09T00:10:05.495Z,941.72
2024-05-09T00:15:02.962Z,941.80
2024-05-09T00:20:07.007Z,941.82
2024-05-09T00:25:02.932Z,941.84
2024-05-09T00:30:04.153Z,941.92
2024-05-09T00:35:02.956Z,941.94
2024-05-09T00:40:04.654Z,942.06
2024-05-09T00:45:02.876Z,942.19
2024-05-09T00:50:04.338Z,942.74
2024-05-09T00:55:02.957Z,942.66
2024-05-09T01:00:06.043Z,942.88
2024-05-09T01:05:03.092Z,942.88
2024-05-09T01:10:05.474Z,943.21
2024-05-09T01:15:02.960Z,943.14
2024-05-09T01:20:06.110Z,943.02
2024-05-09T01:25:02.902Z,943.00
2024-05-09T01:30:06.916Z,943.21
2024-05-09T01:35:02.980Z,943.21
2024-05-09T01:40:05.877Z,943.25
2024-05-09T01:45:02.893Z,943.41
2024-05-09T01:50:05.131Z,943.41
2024-05-09T01:55:04.584Z,943.37
2024-05-09T02:00:04.845Z,943.33
2024-05-09T02:05:03.011Z,943.39
2024-05-09T02:10:08.520Z,943.37
2024-05-09T02:15:03.036Z,943.41
2024-05-09T02:20:05.953Z,943.31
2024-05-09T02:25:02.935Z,943.33
2024-05-09T02:30:07.815Z,943.27
2024-05-09T02:35:02.932Z,943.29
2024-05-09T02:40:04.509Z,943.45
2024-05-09T02:45:02.900Z,943.47
2024-05-09T02:50:05.948Z,943.47
2024-05-09T02:55:02.993Z,943.45
2024-05-09T03:00:06.064Z,943.41
2024-05-09T03:05:02.946Z,943.47
2024-05-09T03:10:04.561Z,943.51
2024-05-09T03:15:02.890Z,943.49
2024-05-09T03:20:05.178Z,943.45
2024-05-09T03:25:02.931Z,943.51
2024-05-09T03:30:05.606Z,943.45
2024-05-09T03:35:02.982Z,943.45
2024-05-09T03:40:04.220Z,943.37
2024-05-09T03:45:03.028Z,943.35
2024-05-09T03:50:05.563Z,943.35
2024-05-09T03:55:02.996Z,943.31
2024-05-09T04:00:09.689Z,943.31
2024-05-09T04:05:02.940Z,943.25
2024-05-09T04:10:05.393Z,943.20
2024-05-09T04:15:02.964Z,943.10
2024-05-09T04:20:04.408Z,943.20
2024-05-09T04:25:02.859Z,943.25
2024-05-09T04:30:04.864Z,943.25
2024-05-09T04:35:03.020Z,943.23
2024-05-09T04:40:05.378Z,943.20
2024-05-09T04:45:02.878Z,943.16
2024-05-09T04:50:04.496Z,943.12
2024-05-09T04:55:03.047Z,943.04
2024-05-09T05:00:07.101Z,943.04
2024-05-09T05:05:03.077Z,943.08
2024-05-09T05:10:05.726Z,943.04
2024-05-09T05:15:02.930Z,943.02
2024-05-09T05:20:04.843Z,942.92
2024-05-09T05:25:02.927Z,942.70
2024-05-09T05:30:05.956Z,942.65
2024-05-09T05:35:02.972Z,942.65
2024-05-09T05:40:04.405Z,942.65
2024-05-09T05:45:03.618Z,942.61
2024-05-09T05:50:05.283Z,942.61
2024-05-09T05:55:02.982Z,942.65
2024-05-09T06:00:04.280Z,942.65
2024-05-09T06:05:03.028Z,942.65
2024-05-09T06:10:07.143Z,942.61
2024-05-09T06:15:02.946Z,942.70
2024-05-09T06:20:04.601Z,942.66
2024-05-09T06:25:02.885Z,942.72
2024-05-09T06:30:05.128Z,942.63
2024-05-09T06:35:02.921Z,942.45
2024-05-09T06:40:05.496Z,942.43
2024-05-09T06:45:02.956Z,942.39
2024-05-09T06:50:04.995Z,942.53
2024-05-09T06:55:02.894Z,942.55
2024-05-09T07:00:04.983Z,942.51
2024-05-09T07:05:03.001Z,942.51
2024-05-09T07:10:04.094Z,942.61
2024-05-09T07:15:02.904Z,942.63
2024-05-09T07:20:05.504Z,942.65
2024-05-09T07:25:02.916Z,942.53
2024-05-09T07:30:05.618Z,942.51
2024-05-09T07:35:02.946Z,942.59
2024-05-09T07:40:05.756Z,942.57
2024-05-09T07:45:14.663Z,942.53
2024-05-09T07:51:31.222Z,942.47
2024-05-09T07:55:03.083Z,942.53
2024-05-09T08:00:04.565Z,942.45
2024-05-09T08:05:03.205Z,942.37
2024-05-09T08:10:04.314Z,942.31
2024-05-09T08:15:02.946Z,942.37
2024-05-09T08:20:05.549Z,942.35
2024-05-09T08:25:02.967Z,942.47
2024-05-09T08:30:04.087Z,942.53
2024-05-09T08:35:02.912Z,942.41
2024-05-09T08:40:04.111Z,942.31
2024-05-09T08:45:02.899Z,942.29
2024-05-09T08:50:05.201Z,942.29
2024-05-09T08:55:02.916Z,942.29
2024-05-09T09:00:06.239Z,942.35
2024-05-09T09:05:02.970Z,942.45
2024-05-09T09:10:05.550Z,942.29
2024-05-09T09:15:03.044Z,942.13
2024-05-09T09:20:04.465Z,942.21
2024-05-09T09:25:03.076Z,942.25
2024-05-09T09:30:05.468Z,942.39
2024-05-09T09:35:03.015Z,942.72
2024-05-09T09:40:04.721Z,942.82
2024-05-09T09:45:04.734Z,943.00
2024-05-09T09:50:07.054Z,943.20
2024-05-09T09:55:02.975Z,943.10
2024-05-09T10:00:07.360Z,942.96
2024-05-09T10:05:03.142Z,943.12
2024-05-09T10:10:04.162Z,943.35
2024-05-09T10:15:02.911Z,943.63
2024-05-09T10:20:05.433Z,943.72
2024-05-09T10:25:04.935Z,943.70
2024-05-09T10:30:05.278Z,943.92
2024-05-09T10:35:03.089Z,943.90
2024-05-09T10:40:07.095Z,943.84
2024-05-09T10:45:03.031Z,943.90
2024-05-09T10:50:06.061Z,943.88
2024-05-09T10:55:04.879Z,943.84
2024-05-09T11:00:03.927Z,943.78
2024-05-09T11:05:03.039Z,943.76
2024-05-09T11:10:04.842Z,944.04
2024-05-09T11:15:03.027Z,944.15
2024-05-09T11:20:06.181Z,944.19
2024-05-09T11:25:03.019Z,944.21
2024-05-09T11:30:04.433Z,944.29
2024-05-09T11:35:03.010Z,944.29
2024-05-09T11:40:06.772Z,944.12
2024-05-09T11:45:02.972Z,943.90
2024-05-09T11:50:07.674Z,943.72
2024-05-09T11:55:03.022Z,943.88
2024-05-09T12:00:04.378Z,943.96
2024-05-09T12:05:03.073Z,944.21
2024-05-09T12:10:06.132Z,944.49
2024-05-09T12:15:03.048Z,944.65
2024-05-09T12:20:07.027Z,944.74
2024-05-09T12:25:03.184Z,944.68
2024-05-09T12:30:04.594Z,944.55
2024-05-09T12:35:02.995Z,944.55
2024-05-09T12:40:05.020Z,944.53
2024-05-09T12:45:02.945Z,944.55
2024-05-09T12:50:06.369Z,944.45
2024-05-09T12:55:02.990Z,944.31
2024-05-09T13:00:04.174Z,944.33
2024-05-09T13:05:03.213Z,944.31
2024-05-09T13:10:04.664Z,944.19
2024-05-09T13:15:02.982Z,944.29
2024-05-09T13:20:05.514Z,944.41
2024-05-09T13:25:02.934Z,944.61
2024-05-09T13:30:05.023Z,944.68
2024-05-09T13:35:02.909Z,944.78
2024-05-09T13:40:06.697Z,944.78
2024-05-09T13:45:02.951Z,944.55
2024-05-09T13:50:05.318Z,944.39
2024-05-09T13:55:02.919Z,944.41
2024-05-09T14:00:06.767Z,944.51
2024-05-09T14:05:03.123Z,944.47
2024-05-09T14:10:05.204Z,944.70
2024-05-09T14:15:02.925Z,944.82
2024-05-09T14:20:04.899Z,944.80
2024-05-09T14:25:03.216Z,944.74
2024-05-09T14:30:04.362Z,944.70
2024-05-09T14:35:02.922Z,944.63
2024-05-09T14:40:06.847Z,944.47
2024-05-09T14:45:02.898Z,944.53
2024-05-09T14:50:04.104Z,944.53
2024-05-09T14:55:02.928Z,944.51
2024-05-09T15:00:05.294Z,944.41
2024-05-09T15:05:03.122Z,944.45
2024-05-09T15:10:04.863Z,944.37
2024-05-09T15:15:02.967Z,944.25
2024-05-09T15:20:07.427Z,944.19
2024-05-09T15:25:02.883Z,944.12
2024-05-09T15:30:05.549Z,944.02
2024-05-09T15:35:02.927Z,943.96
2024-05-09T15:45:02.956Z,943.76
2024-05-09T15:50:06.225Z,943.66
2024-05-09T15:55:02.982Z,943.47
2024-05-09T16:00:05.812Z,943.37
2024-05-09T16:05:03.178Z,943.29
2024-05-09T16:10:05.291Z,943.29
2024-05-09T16:15:02.908Z,943.23
2024-05-09T16:20:06.929Z,943.20
2024-05-09T16:25:02.931Z,943.18
2024-05-09T16:30:06.976Z,943.10
2024-05-09T16:35:02.961Z,943.02
2024-05-09T16:40:04.422Z,942.84
2024-05-09T16:45:02.961Z,942.86
2024-05-09T16:50:05.243Z,943.04
2024-05-09T16:55:03.001Z,943.18
2024-05-09T17:00:07.234Z,943.20
2024-05-09T17:05:03.143Z,942.72
2024-05-09T17:10:04.077Z,942.72
2024-05-09T17:15:03.019Z,942.90
2024-05-09T17:20:06.062Z,943.06
2024-05-09T17:25:03.052Z,942.72
2024-05-09T17:30:04.622Z,942.47
2024-05-09T17:35:03.298Z,942.55
2024-05-09T17:40:06.616Z,942.78
2024-05-09T17:45:02.865Z,942.76
2024-05-09T17:50:04.457Z,942.80
2024-05-09T17:55:02.979Z,942.61
2024-05-09T18:00:05.377Z,942.43
2024-05-09T18:05:03.189Z,942.41
2024-05-09T18:10:04.736Z,942.35
2024-05-09T18:15:02.882Z,942.29
2024-05-09T18:20:05.090Z,942.21
2024-05-09T18:25:02.986Z,942.19
2024-05-09T18:30:05.540Z,942.21
2024-05-09T18:35:03.068Z,942.10
2024-05-09T18:40:05.617Z,942.25
2024-05-09T18:45:03.034Z,942.27
2024-05-09T18:50:07.356Z,942.23
2024-05-09T18:55:02.959Z,942.27
2024-05-09T19:00:05.500Z,942.29
2024-05-09T19:05:02.977Z,942.13
2024-05-09T19:10:04.622Z,942.02
2024-05-09T19:15:02.976Z,942.41
2024-05-09T19:20:05.675Z,942.51
2024-05-09T19:25:03.070Z,942.41
2024-05-09T19:30:05.674Z,942.19
2024-05-09T19:35:02.989Z,942.35
2024-05-09T19:40:05.444Z,942.19
2024-05-09T19:45:03.034Z,942.13
2024-05-09T19:50:06.421Z,942.37
2024-05-09T19:55:02.892Z,942.25
2024-05-09T20:00:05.802Z,942.02
2024-05-09T20:05:03.121Z,942.00
2024-05-09T20:10:05.277Z,942.39
2024-05-09T20:15:03.127Z,942.43
2024-05-09T20:20:05.943Z,942.57
2024-05-09T20:25:03.057Z,942.66
2024-05-09T20:30:07.942Z,942.74
2024-05-09T20:35:02.867Z,942.82
2024-05-09T20:40:06.344Z,942.96
2024-05-09T20:45:03.003Z,942.88
2024-05-09T20:50:05.217Z,942.84
2024-05-09T20:55:02.902Z,942.68
2024-05-09T21:00:07.365Z,942.57
2024-05-09T21:05:03.175Z,942.59
2024-05-09T21:10:08.296Z,942.65
2024-05-09T21:15:02.964Z,942.68
2024-05-09T21:20:07.256Z,942.68
2024-05-09T21:25:02.946Z,942.61
2024-05-09T21:30:04.549Z,942.65
2024-05-09T21:35:02.894Z,942.74
2024-05-09T21:40:05.156Z,942.92
2024-05-09T21:45:02.961Z,942.90
2024-05-09T21:50:04.866Z,942.84
2024-05-09T21:55:03.040Z,942.78
2024-05-09T22:00:05.598Z,942.82
2024-05-09T22:05:03.208Z,942.90
2024-05-09T22:10:05.073Z,942.84
2024-05-09T22:15:02.989Z,942.76
2024-05-09T22:20:07.390Z,942.74
2024-05-09T22:25:02.922Z,942.80
2024-05-09T22:30:05.285Z,942.78
2024-05-09T22:35:03.042Z,942.80
2024-05-09T22:40:05.453Z,942.88
2024-05-09T22:45:02.978Z,942.86
2024-05-09T22:50:04.440Z,942.88
2024-05-09T22:55:02.939Z,942.90
2024-05-09T23:00:04.039Z,942.90
2024-05-09T23:05:02.932Z,942.90
2024-05-09T23:10:05.404Z,942.86
2024-05-09T23:15:02.986Z,942.84
2024-05-09T23:20:06.811Z,942.92
2024-05-09T23:25:02.988Z,943.00
2024-05-09T23:30:06.001Z,943.08
2024-05-09T23:35:02.968Z,943.02
2024-05-09T23:40:06.866Z,943.06
2024-05-09T23:45:02.958Z,943.04
2024-05-09T23:50:06.772Z,943.04
2024-05-09T23:55:03.077Z,943.12
